Airdrie Aerodrome

CEF4 · Alberta, Canada

6 ottobre 2022

Tempo Codice Tempo metereologico Temp. Vista Base nuvolosa Vento METAR/SPECI
12:00
V
11 °C 12 mi - 140° 140° 7 kt METAR CYYC 061800Z 14007KT 110V180 12SM FEW040 11/05 A3045 RMK SC1 SC TR SLP338
11:00
V
8 °C 15 mi - 170° 170° 7 kt METAR CYYC 061700Z 17007KT 15SM FEW040 08/03 A3045 RMK SC1 SC TR SLP344
10:00
V
6 °C 12 mi - 180° 180° 9 kt METAR CYYC 061600Z 18009KT 12SM FEW040 06/03 A3045 RMK SC1 SC TR SLP345
09:00
V
4 °C 9 mi - 180° 180° 6 kt METAR CYYC 061500Z 18006KT 9SM SKC 04/03 A3046 RMK BR SLP347
08:00
V
2 °C 8 mi - 180° 180° 5 kt METAR CYYC 061400Z 18005KT 8SM FEW003 02/02 A3045 RMK CF1 CF TR BR SLP346
07:06
V
2 °C 9 mi - 170° 170° 5 kt METAR CYYC 061306Z 17005KT 9SM VCFG SKC 02/02 A3045 RMK VIS NE-SE 1 1/4 FG/FG HGT 800 FT SLP343
06:00
V
3 °C 15 mi - 180° 180° 5 kt METAR CYYC 061200Z 18005KT 15SM SKC 03/02 A3045 RMK SLP339
05:22
V
3 °C 15 mi - 190° 190° 5 kt METAR CYYC 061122Z 19005KT 15SM SKC 03/02 A3046 RMK SLP340
05:00
V
4 °C 15 mi - 170° 170° 3 kt METAR CYYC 061100Z 17003KT 15SM SKC 04/02 A3046 RMK SLP338
04:00
V
4 °C 15 mi - 140° 140° 8 kt METAR CYYC 061000Z 14008KT 15SM FEW110 04/03 A3046 RMK AC1 AC TR SLP336
03:00
V
5 °C 15 mi 11.000 ft 130° 130° 8 kt METAR CYYC 060900Z 13008KT 15SM BKN110 05/03 A3047 RMK AC6 SLP339
02:00
V
5 °C 15 mi 14.000 ft 160° 160° 10 kt METAR CYYC 060800Z 16010KT 15SM BKN140 05/02 A3046 RMK AC5 SLP337
01:00
V
6 °C 15 mi 14.000 ft 180° 180° 8 kt METAR CYYC 060700Z 18008KT 15SM BKN140 06/02 A3046 RMK AC6 SLP339
00:17
V
7 °C 15 mi 6.000 ft 170° 170° 6 kt METAR CYYC 060617Z 17006KT 15SM VCSH BKN060 BKN083 07/04 A3047 RMK SC5AC2 SH SE-SW SLP341
00:00
V
7 °C 12 mi 6.100 ft 150° 150° 6 kt METAR CYYC 060600Z 15006KT 12SM -RA BKN061 OVC083 07/04 A3047 RMK SC5AC3 PCPN VRY LGT SLP340

5 ottobre 2022

Tempo Codice Tempo metereologico Temp. Vista Base nuvolosa Vento METAR/SPECI
23:00
V
7 °C 12 mi 6.200 ft 080° 080° 6 kt METAR CYYC 060500Z 08006KT 12SM -RA BKN062 OVC083 07/04 A3048 RMK SC6AC2 SLP345
22:00
V
8 °C 12 mi 8.500 ft 090° 090° 8 kt METAR CYYC 060400Z 09008KT 12SM -RA BKN085 08/03 A3045 RMK AC7 SLP337
21:00
V
9 °C 15 mi 11.000 ft 090° 090° 9 - 15 kt METAR CYYC 060300Z 09009G15KT 15SM BKN110 09/02 A3041 RMK AC7 SLP328
20:00
V
11 °C 15 mi 11.000 ft 090° 090° 15 kt METAR CYYC 060200Z 09015KT 15SM BKN110 11/02 A3037 RMK AC6 SLP316
19:00
V
13 °C 10 mi 12.000 ft 100° 100° 13 kt METAR CYYC 060100Z 10013KT 10SM BKN120 13/03 A3033 RMK AC5 VIRGA OVRHD+N SLP299 DENSITY ALT 3800FT
18:00
V
16 °C 15 mi - 110° 110° 10 kt METAR CYYC 060000Z 11010KT 15SM SCT120 16/02 A3030 RMK AC3 SLP282 DENSITY ALT 4100FT
17:00
V
17 °C 15 mi - 110° 110° 11 - 17 kt METAR CYYC 052300Z 11011G17KT 15SM FEW100 17/02 A3028 RMK AC1 SLP271 DENSITY ALT 4400FT
16:00
V
18 °C 15 mi - 110° 110° 10 - 17 kt METAR CYYC 052200Z 11010G17KT 15SM FEW200 18/03 A3026 RMK CI1 SLP263 DENSITY ALT 4400FT
15:00
V
18 °C 12 mi - 130° 130° 9 - 16 kt METAR CYYC 052100Z 13009G16KT 12SM FEW170 FEW200 18/03 A3025 RMK AC1CI1 AC TR SLP261 DENSITY ALT 4400FT
14:00
V
17 °C 12 mi - 140° 140° 10 kt METAR CYYC 052000Z 14010KT 100V160 12SM FEW170 SCT200 17/02 A3025 RMK AC2CI1 SLP259 DENSITY ALT 4300FT
13:00
V
15 °C 12 mi 22.000 ft 130° 130° 12 kt METAR CYYC 051900Z 13012KT 12SM FEW090 SCT190 BKN220 15/03 A3024 RMK AC1AC3CI4 AC TR SLP255 DENSITY ALT 4200FT
12:00
V
16 °C 10 mi 22.000 ft 140° 140° 9 kt METAR CYYC 051800Z 14009KT 100V160 10SM FEW090 FEW160 BKN220 16/03 A3025 RMK AC1AC2CI4 AC TR CC ASOCTD SLP256 DENSITY ALT 4200FT
11:00
V
13 °C 8 mi 22.000 ft 100° 100° 5 kt METAR CYYC 051700Z 10005KT 090V150 8SM FEW090 FEW160 BKN220 13/02 A3025 RMK AC1AC2CI4 AC TR BR SLP259 DENSITY ALT 3900FT
10:00
V
10 °C 6 mi 22.000 ft Var 000° 0 kt METAR CYYC 051600Z 00000KT 6SM BR FEW090 BKN220 10/03 A3024 RMK AC1CI7 AC TR SLP258
09:00
V
6 °C 6 mi 22.000 ft 320° 320° 4 kt METAR CYYC 051500Z 32004KT 320V040 6SM BR FEW090 BKN220 06/01 A3023 RMK AC1CI6 SLP259
08:00
V
4 °C 7 mi 22.000 ft 060° 060° 4 kt METAR CYYC 051400Z 06004KT 7SM FEW090 BKN220 04/00 A3022 RMK AC2CI4 BR SLP256
07:00
V
5 °C 9 mi 24.000 ft 340° 340° 2 kt METAR CYYC 051300Z 34002KT 9SM BKN240 05/01 A3022 RMK CI5 SLP251
06:00
V
6 °C 9 mi 25.000 ft Var Var 2 kt METAR CYYC 051200Z VRB02KT 9SM BKN250 06/01 A3022 RMK CI5 SLP245
05:00
V
6 °C 9 mi - Var 000° 0 kt METAR CYYC 051100Z 00000KT 9SM FEW220 06/01 A3021 RMK CI2 SLP240
04:00
V
7 °C 9 mi 22.000 ft 020° 020° 5 kt METAR CYYC 051000Z 02005KT 9SM BKN220 07/02 A3022 RMK CI5 SLP243
03:00
V
7 °C 9 mi - Var 000° 0 kt METAR CYYC 050900Z 00000KT 9SM SCT220 07/02 A3022 RMK CI3 SLP243
02:00
V
9 °C 12 mi 23.000 ft 330° 330° 3 kt METAR CYYC 050800Z 33003KT 12SM SCT093 BKN230 09/02 A3022 RMK AC3CI2 SLP241
01:00
V
11 °C 12 mi - 320° 320° 3 kt METAR CYYC 050700Z 32003KT 12SM FEW094 SCT220 11/03 A3022 RMK AC2CI2 SLP237 DENSITY ALT 3700FT
00:00
V
12 °C 15 mi 25.000 ft 360° 360° 5 kt METAR CYYC 050600Z 36005KT 15SM SCT093 BKN250 12/04 A3020 RMK AC3CI2 SLP233 DENSITY ALT 3800FT

4 ottobre 2022

Tempo Codice Tempo metereologico Temp. Vista Base nuvolosa Vento METAR/SPECI
23:00
V
12 °C 15 mi - 020° 020° 5 kt METAR CYYC 050500Z 02005KT 15SM SCT260 12/04 A3019 RMK CI3 SLP229 DENSITY ALT 3900FT
22:00
V
14 °C 15 mi - 060° 060° 5 kt METAR CYYC 050400Z 06005KT 15SM FEW250 14/04 A3017 RMK CI2 SLP225 DENSITY ALT 4100FT
21:00
V
15 °C 15 mi - 090° 090° 6 kt METAR CYYC 050300Z 09006KT 15SM SCT260 15/05 A3016 RMK CI3 SLP226 DENSITY ALT 4200FT
20:00
V
17 °C 15 mi 26.000 ft 090° 090° 7 kt METAR CYYC 050200Z 09007KT 15SM BKN260 17/06 A3014 RMK CI5 SLP218 DENSITY ALT 4400FT
19:00
V
18 °C 15 mi 30.000 ft 100° 100° 7 kt METAR CYYC 050100Z 10007KT 15SM OVC300 18/06 A3013 RMK CI8 SLP214 DENSITY ALT 4600FT
18:00
V
21 °C 15 mi 30.000 ft 090° 090° 9 kt METAR CYYC 050000Z 09009KT 15SM OVC300 21/05 A3012 RMK CI8 SLP204 DENSITY ALT 4900FT
17:00
V
22 °C 15 mi 30.000 ft 060° 060° 6 kt METAR CYYC 042300Z 06006KT 15SM OVC300 22/05 A3012 RMK CI8 SLP205 DENSITY ALT 5100FT
16:00
V
23 °C 15 mi 30.000 ft 040° 040° 5 kt METAR CYYC 042200Z 04005KT 360V100 15SM BKN300 23/06 A3012 RMK CI6 SLP206 DENSITY ALT 5100FT
15:00
V
23 °C 15 mi 30.000 ft 070° 070° 7 kt METAR CYYC 042100Z 07007KT 010V090 15SM BKN300 23/06 A3012 RMK CI6 SLP205 DENSITY ALT 5200FT
14:00
V
23 °C 15 mi - 040° 040° 6 kt METAR CYYC 042000Z 04006KT 020V080 15SM FEW100 SCT300 23/06 A3012 RMK AC1CI3 AC TR SLP206 DENSITY ALT 5100FT
13:00
V
22 °C 15 mi - 020° 020° 9 kt METAR CYYC 041900Z 02009KT 15SM FEW300 22/07 A3013 RMK CI2 SLP206 DENSITY ALT 5000FT
12:00
V
21 °C 15 mi - 010° 010° 10 kt METAR CYYC 041800Z 01010KT 15SM FEW300 21/07 A3013 RMK CI1 SLP207 DENSITY ALT 4900FT
11:00
V
19 °C 15 mi - 340° 340° 11 kt METAR CYYC 041700Z 34011KT 15SM FEW300 19/07 A3013 RMK CI1 SLP206 DENSITY ALT 4700FT
10:00
V
16 °C 40 mi - 340° 340° 3 kt METAR CYYC 041600Z 34003KT 280V360 40SM FEW300 16/05 A3013 RMK CI2 SLP208 DENSITY ALT 4400FT
09:00
V
11 °C 40 mi - Var Var 2 kt METAR CYYC 041500Z VRB02KT 40SM FEW300 11/05 A3012 RMK CI1 CONTRAILS SLP209 DENSITY ALT 3800FT
Dati più vecchi

Noi e le terze parti seguiamo il tuo comportamento in internet sul nostro sito web con i cookie. Se continui, riteniamo che tu sia d'accordo con la nostra politica sui cookie. Per saperne di più